Time;durP1;ratioP1;P1;durP2;ratioP2;P2;SDS_P1;SDS_P2;PMS_P1;PMS_P2;Temp;Humidity;BMP_temperature;BMP_pressure;BME280_temperature;BME280_humidity;BME280_pressure;Samples;Min_cycle;Max_cycle;Signal;HPM_P1;HPM_P2
2021/09/21 00:01:01;;;;;;;16.38;13.27;;;11.40;77.20;;;;;;4980192;28;20093;-72
2021/09/21 00:03:27;;;;;;;17.63;13.90;;;11.30;77.30;;;;;;4978313;28;20470;-74
2021/09/21 00:05:53;;;;;;;17.05;13.70;;;11.30;77.50;;;;;;4980099;28;20033;-72
2021/09/21 00:08:18;;;;;;;19.70;14.82;;;11.20;77.70;;;;;;4982505;28;20038;-72
2021/09/21 00:10:44;;;;;;;18.02;14.57;;;11.20;77.70;;;;;;4982401;28;20065;-72
2021/09/21 00:13:10;;;;;;;19.33;14.05;;;11.10;77.90;;;;;;4976912;28;20122;-74
2021/09/21 00:15:36;;;;;;;17.08;14.02;;;11.10;78.00;;;;;;4976145;28;20041;-75
2021/09/21 00:18:01;;;;;;;16.85;14.63;;;11.10;78.10;;;;;;4978808;28;20049;-72
2021/09/21 00:20:27;;;;;;;19.23;15.52;;;11.10;78.40;;;;;;4983249;28;20116;-72
2021/09/21 00:22:52;;;;;;;18.77;15.30;;;11.00;78.60;;;;;;4979539;28;20027;-72
2021/09/21 00:25:18;;;;;;;16.70;14.73;;;11.00;78.80;;;;;;4978801;28;20139;-76
2021/09/21 00:27:44;;;;;;;20.30;16.17;;;11.00;78.90;;;;;;4977757;28;20122;-72
2021/09/21 00:30:12;;;;;;;18.58;15.50;;;11.00;79.10;;;;;;4982016;28;20109;-71
2021/09/21 00:32:38;;;;;;;18.73;15.95;;;11.00;79.30;;;;;;4977626;28;20049;-72
2021/09/21 00:35:04;;;;;;;19.63;16.33;;;10.90;79.50;;;;;;4985317;28;20032;-72
2021/09/21 00:37:30;;;;;;;20.42;16.15;;;10.90;79.60;;;;;;4981205;28;20466;-72
2021/09/21 00:39:56;;;;;;;18.45;15.80;;;10.90;79.80;;;;;;4980273;28;20406;-72
2021/09/21 00:42:29;;;;;;;22.85;17.13;;;10.80;80.00;;;;;;4985408;28;20035;-72
2021/09/21 00:45:05;;;;;;;20.55;16.38;;;10.90;80.00;;;;;;4985437;28;20477;-72
2021/09/21 00:47:30;;;;;;;20.40;15.65;;;10.80;80.00;;;;;;4980854;28;20049;-70
2021/09/21 00:49:57;;;;;;;19.60;16.88;;;10.80;80.20;;;;;;4984569;28;20043;-72
2021/09/21 00:52:23;;;;;;;21.67;16.48;;;10.80;80.30;;;;;;4982722;28;20058;-72
2021/09/21 00:54:49;;;;;;;20.67;15.95;;;10.80;80.30;;;;;;4982439;28;20038;-71
2021/09/21 00:57:15;;;;;;;18.77;16.40;;;10.80;80.40;;;;;;4985582;28;20089;-70
2021/09/21 00:59:41;;;;;;;18.70;16.27;;;10.80;80.50;;;;;;4982189;28;20451;-70
2021/09/21 01:02:07;;;;;;;19.77;16.70;;;10.70;80.50;;;;;;4982590;28;20038;-71
2021/09/21 01:04:35;;;;;;;19.52;15.65;;;10.70;80.60;;;;;;4986843;28;20046;-75
2021/09/21 01:07:00;;;;;;;22.17;16.73;;;10.70;80.60;;;;;;4985708;28;20043;-73
2021/09/21 01:09:29;;;;;;;19.67;16.25;;;10.70;80.70;;;;;;4984113;28;20037;-73
2021/09/21 01:11:57;;;;;;;19.02;16.30;;;10.70;80.60;;;;;;4985700;28;20035;-71
2021/09/21 01:14:24;;;;;;;19.95;16.05;;;10.70;80.60;;;;;;5004099;28;20070;-75
2021/09/21 01:16:51;;;;;;;17.77;15.55;;;10.60;80.70;;;;;;4999293;28;20039;-73
2021/09/21 01:19:18;;;;;;;19.13;15.52;;;10.60;80.70;;;;;;4982567;28;20047;-71
2021/09/21 01:21:45;;;;;;;20.08;15.85;;;10.60;80.70;;;;;;4987424;28;20382;-71
2021/09/21 01:24:12;;;;;;;19.42;16.58;;;10.60;80.60;;;;;;4986046;28;20043;-71
2021/09/21 01:26:38;;;;;;;18.90;16.75;;;10.60;80.50;;;;;;4987813;28;20160;-71
2021/09/21 01:29:04;;;;;;;19.40;14.98;;;10.60;80.10;;;;;;4986211;28;20118;-73
2021/09/21 01:31:30;;;;;;;18.52;15.95;;;10.50;80.20;;;;;;4977626;28;20043;-72
2021/09/21 01:33:57;;;;;;;18.88;15.27;;;10.50;80.30;;;;;;4985288;28;20622;-75
2021/09/21 01:36:24;;;;;;;20.52;15.68;;;10.40;80.50;;;;;;4983014;28;20069;-72
2021/09/21 01:38:51;;;;;;;19.80;17.10;;;10.40;80.50;;;;;;4976588;28;20051;-72
2021/09/21 01:41:17;;;;;;;20.90;16.58;;;10.40;80.50;;;;;;4983725;28;20046;-75
2021/09/21 01:43:45;;;;;;;18.00;15.52;;;10.30;80.70;;;;;;4983819;28;20113;-75
2021/09/21 01:46:13;;;;;;;19.60;15.70;;;10.30;80.90;;;;;;4983684;28;20038;-71
2021/09/21 01:48:39;;;;;;;18.05;14.95;;;10.30;80.60;;;;;;4981163;28;20203;-73
2021/09/21 01:51:08;;;;;;;20.10;15.82;;;10.30;80.60;;;;;;4982269;28;20156;-71
2021/09/21 01:53:52;;;;;;;18.00;15.02;;;10.30;80.70;;;;;;4983268;28;20042;-73
2021/09/21 01:59:02;;;;;;;18.60;15.97;;;10.20;80.50;;;;;;4985542;28;20117;-74
2021/09/21 02:01:28;;;;;;;18.40;15.50;;;10.10;80.70;;;;;;4984765;28;20133;-71
2021/09/21 02:03:58;;;;;;;20.45;15.57;;;10.10;80.90;;;;;;4983318;28;20114;-72
2021/09/21 02:06:37;;;;;;;21.13;15.80;;;10.10;81.00;;;;;;4983901;28;20027;-73
2021/09/21 02:09:04;;;;;;;19.65;16.23;;;10.10;81.00;;;;;;4985037;28;20529;-73
2021/09/21 02:11:30;;;;;;;19.75;16.55;;;10.00;81.00;;;;;;4984360;28;20133;-72
2021/09/21 02:13:57;;;;;;;18.85;15.68;;;10.10;81.00;;;;;;4985360;28;20030;-72
2021/09/21 02:16:27;;;;;;;19.15;16.65;;;10.10;80.90;;;;;;4983604;28;20385;-74
2021/09/21 02:18:53;;;;;;;19.08;16.13;;;10.10;80.80;;;;;;4983439;28;20043;-76
2021/09/21 02:21:19;;;;;;;22.05;17.10;;;10.00;80.70;;;;;;4986080;28;20145;-74
2021/09/21 02:23:45;;;;;;;18.67;15.68;;;10.00;80.80;;;;;;4984851;28;20429;-73
2021/09/21 02:26:11;;;;;;;19.48;17.13;;;9.90;81.00;;;;;;4981761;28;20068;-73
2021/09/21 02:28:38;;;;;;;21.00;17.63;;;9.80;81.20;;;;;;4984617;28;20062;-73
2021/09/21 02:31:04;;;;;;;21.05;17.08;;;9.80;81.60;;;;;;4981897;28;20042;-72
2021/09/21 02:33:29;;;;;;;21.52;17.23;;;9.80;81.80;;;;;;4985065;28;20134;-72
2021/09/21 02:35:55;;;;;;;20.05;17.38;;;9.80;82.00;;;;;;4981339;28;20122;-74
2021/09/21 02:38:21;;;;;;;21.25;17.42;;;9.80;81.70;;;;;;4976496;28;20066;-72
2021/09/21 02:40:46;;;;;;;22.23;16.05;;;9.80;81.60;;;;;;4979461;28;20039;-73
2021/09/21 02:43:12;;;;;;;18.40;15.85;;;9.80;81.80;;;;;;4986066;28;21472;-72
2021/09/21 02:45:38;;;;;;;22.17;16.50;;;9.70;81.90;;;;;;4983384;28;20443;-71
2021/09/21 02:48:04;;;;;;;20.55;16.75;;;9.70;81.90;;;;;;4983341;28;20037;-71
2021/09/21 02:50:30;;;;;;;21.67;17.15;;;9.70;82.00;;;;;;4983815;28;20045;-74
2021/09/21 02:52:56;;;;;;;21.90;16.25;;;9.60;82.00;;;;;;4980094;28;20049;-73
2021/09/21 02:55:22;;;;;;;20.42;16.60;;;9.60;81.80;;;;;;4985767;28;20437;-73
2021/09/21 02:57:48;;;;;;;19.35;15.65;;;9.60;81.80;;;;;;4993206;28;20036;-72
2021/09/21 03:00:18;;;;;;;19.80;16.30;;;9.60;81.70;;;;;;4982704;28;20042;-72
2021/09/21 03:02:45;;;;;;;18.30;16.02;;;9.60;81.60;;;;;;4982120;28;20034;-71
2021/09/21 03:05:15;;;;;;;19.40;16.10;;;9.60;81.60;;;;;;4978472;28;20129;-75
2021/09/21 03:07:47;;;;;;;16.45;14.23;;;9.60;81.50;;;;;;4983549;28;20034;-72
2021/09/21 03:10:25;;;;;;;17.90;14.85;;;9.50;81.20;;;;;;4983430;28;20137;-75
2021/09/21 03:18:04;;;;;;;18.83;16.30;;;9.40;81.60;;;;;;4983094;28;20377;-73
2021/09/21 03:20:30;;;;;;;20.05;16.08;;;9.40;81.70;;;;;;4985140;28;20061;-73
2021/09/21 03:22:56;;;;;;;24.27;16.45;;;9.40;81.70;;;;;;4984792;28;20132;-72
2021/09/21 03:25:22;;;;;;;19.48;16.10;;;9.30;81.90;;;;;;4985914;28;20382;-71
2021/09/21 03:27:48;;;;;;;22.65;16.35;;;9.30;81.90;;;;;;4982458;28;21268;-73
2021/09/21 03:30:14;;;;;;;22.17;17.45;;;9.30;81.90;;;;;;4984910;28;20045;-71
2021/09/21 03:32:41;;;;;;;23.85;19.60;;;9.20;82.00;;;;;;4982389;28;20365;-72
2021/09/21 03:35:08;;;;;;;23.63;18.45;;;9.20;82.30;;;;;;4985714;28;20042;-72
2021/09/21 03:37:34;;;;;;;22.55;18.30;;;9.20;82.60;;;;;;4981026;28;20046;-73
2021/09/21 03:40:00;;;;;;;21.10;18.55;;;9.10;82.70;;;;;;4991968;28;20042;-73
2021/09/21 03:42:25;;;;;;;21.30;17.40;;;9.10;82.90;;;;;;4998945;28;20041;-74
2021/09/21 03:44:51;;;;;;;20.42;18.05;;;9.10;83.00;;;;;;4998448;28;20723;-73
2021/09/21 03:47:17;;;;;;;21.85;18.40;;;9.10;82.80;;;;;;4999853;28;20030;-72
2021/09/21 03:49:43;;;;;;;21.38;16.88;;;9.10;82.70;;;;;;5005823;28;20033;-73
2021/09/21 03:52:09;;;;;;;21.23;17.13;;;9.10;82.60;;;;;;5002179;28;20041;-72
2021/09/21 03:54:35;;;;;;;20.83;17.67;;;9.10;82.70;;;;;;5000851;28;20046;-72
2021/09/21 03:57:01;;;;;;;21.48;18.00;;;9.00;82.70;;;;;;4998149;28;20431;-76
2021/09/21 03:59:27;;;;;;;21.05;16.85;;;9.00;82.40;;;;;;5002225;28;20042;-72
2021/09/21 04:01:53;;;;;;;19.95;17.10;;;9.00;82.40;;;;;;5002615;28;20046;-71
2021/09/21 04:04:19;;;;;;;20.33;15.70;;;9.00;82.30;;;;;;5002102;28;20099;-71
2021/09/21 04:06:46;;;;;;;19.88;16.95;;;8.90;82.30;;;;;;5002978;28;20049;-72
2021/09/21 04:09:12;;;;;;;18.88;16.25;;;8.90;82.50;;;;;;5004262;28;20026;-75
2021/09/21 04:11:38;;;;;;;20.05;17.05;;;8.80;82.40;;;;;;5005228;28;20041;-73
2021/09/21 04:14:04;;;;;;;18.58;16.30;;;8.80;82.50;;;;;;5007128;28;20038;-73
2021/09/21 04:16:30;;;;;;;21.52;16.80;;;8.80;82.60;;;;;;5001613;28;20533;-72
2021/09/21 04:18:57;;;;;;;20.42;16.70;;;8.80;82.60;;;;;;5004552;28;20038;-73
2021/09/21 04:21:23;;;;;;;19.38;16.05;;;8.80;82.50;;;;;;5005478;28;20095;-71
2021/09/21 04:23:49;;;;;;;20.83;16.85;;;8.80;82.60;;;;;;5004707;28;20123;-72
2021/09/21 04:26:15;;;;;;;21.75;16.95;;;8.90;82.60;;;;;;5004145;28;20446;-71
2021/09/21 04:28:41;;;;;;;21.45;17.95;;;8.90;82.70;;;;;;5003730;28;20049;-74
2021/09/21 04:31:11;;;;;;;20.48;16.45;;;8.80;82.80;;;;;;5000513;28;20396;-74
2021/09/21 04:33:38;;;;;;;20.50;16.05;;;8.80;82.80;;;;;;5007423;28;20103;-72
2021/09/21 04:36:09;;;;;;;19.88;16.77;;;8.80;82.60;;;;;;5000118;28;20030;-71
2021/09/21 04:38:36;;;;;;;19.70;16.33;;;8.80;82.40;;;;;;4997767;28;20034;-72
2021/09/21 04:41:03;;;;;;;22.48;16.85;;;8.70;82.40;;;;;;5004086;28;20402;-72
2021/09/21 04:43:30;;;;;;;19.42;16.00;;;8.70;82.60;;;;;;5005169;28;20526;-72
2021/09/21 04:45:55;;;;;;;20.63;16.95;;;8.60;82.70;;;;;;5001739;28;20381;-74
2021/09/21 04:48:21;;;;;;;21.15;17.65;;;8.60;82.80;;;;;;5006007;28;20042;-71
2021/09/21 04:50:47;;;;;;;20.05;17.40;;;8.60;82.90;;;;;;5002025;28;20567;-72
2021/09/21 04:53:13;;;;;;;25.10;18.20;;;8.60;83.00;;;;;;5003676;28;20073;-74
2021/09/21 04:55:39;;;;;;;20.63;17.60;;;8.60;82.90;;;;;;4998556;28;20092;-75
2021/09/21 04:58:04;;;;;;;23.27;18.38;;;8.60;83.00;;;;;;5000816;28;20129;-71
2021/09/21 05:00:30;;;;;;;23.27;17.92;;;8.60;83.00;;;;;;5000395;28;20108;-76
2021/09/21 05:02:56;;;;;;;26.13;19.20;;;8.60;82.80;;;;;;5001397;28;20622;-72
2021/09/21 05:05:22;;;;;;;23.70;17.98;;;8.60;82.60;;;;;;5000952;28;20030;-72
2021/09/21 05:07:48;;;;;;;22.10;17.67;;;8.50;82.80;;;;;;4999436;28;20109;-71
2021/09/21 05:10:16;;;;;;;23.40;19.60;;;8.60;82.70;;;;;;5003078;28;20525;-71
2021/09/21 05:12:41;;;;;;;23.77;18.40;;;8.60;82.70;;;;;;5004537;28;20084;-71
2021/09/21 05:15:08;;;;;;;22.63;18.63;;;8.50;82.90;;;;;;5006529;28;20382;-74
2021/09/21 05:17:34;;;;;;;22.90;18.27;;;8.60;83.00;;;;;;5002138;28;20397;-73
2021/09/21 05:19:59;;;;;;;23.33;18.55;;;8.50;83.10;;;;;;4996315;28;20046;-75
2021/09/21 05:22:25;;;;;;;22.70;18.58;;;8.50;83.20;;;;;;5001174;28;20049;-72
2021/09/21 05:24:51;;;;;;;21.60;17.58;;;8.50;83.40;;;;;;5006736;28;20485;-71
2021/09/21 05:27:16;;;;;;;22.98;18.73;;;8.60;83.40;;;;;;5005370;28;20072;-73
2021/09/21 05:29:42;;;;;;;23.80;18.77;;;8.50;83.40;;;;;;5002433;28;20397;-70
2021/09/21 05:32:08;;;;;;;25.20;18.85;;;8.60;83.30;;;;;;5003314;28;20074;-75
2021/09/21 05:34:33;;;;;;;23.23;17.98;;;8.60;83.50;;;;;;5001473;28;20134;-70
2021/09/21 05:36:59;;;;;;;23.95;19.23;;;8.50;83.70;;;;;;5001901;28;20058;-68
2021/09/21 05:39:25;;;;;;;25.20;18.45;;;8.50;83.70;;;;;;4996986;28;20033;-69
2021/09/21 05:41:51;;;;;;;24.10;18.58;;;8.50;83.70;;;;;;5004328;28;20057;-68
2021/09/21 05:44:16;;;;;;;21.92;19.42;;;8.50;83.50;;;;;;4999286;28;20042;-70
2021/09/21 05:46:45;;;;;;;23.58;18.38;;;8.60;83.20;;;;;;5003647;28;20045;-69
2021/09/21 05:49:11;;;;;;;22.90;18.42;;;8.60;83.20;;;;;;5002017;28;20061;-69
2021/09/21 05:51:36;;;;;;;23.00;19.42;;;8.60;83.20;;;;;;4998097;28;20062;-71
2021/09/21 05:54:03;;;;;;;24.48;19.08;;;8.60;83.30;;;;;;5005588;28;20047;-68
2021/09/21 05:56:28;;;;;;;24.70;18.15;;;8.70;83.40;;;;;;5006579;28;20054;-69
2021/09/21 05:58:54;;;;;;;24.10;17.80;;;8.60;83.50;;;;;;5005479;28;20533;-68
2021/09/21 06:01:20;;;;;;;22.45;17.75;;;8.70;83.50;;;;;;5007760;28;20030;-68
2021/09/21 06:03:45;;;;;;;22.75;17.60;;;8.70;83.60;;;;;;5006889;28;20031;-69
2021/09/21 06:06:11;;;;;;;23.58;18.17;;;8.70;83.60;;;;;;5004147;28;20049;-69
2021/09/21 06:08:37;;;;;;;24.05;19.10;;;8.80;83.70;;;;;;5003535;28;20080;-69
2021/09/21 06:11:03;;;;;;;22.70;17.63;;;8.70;83.70;;;;;;5004115;28;20113;-69
2021/09/21 06:13:28;;;;;;;23.52;17.83;;;8.80;83.80;;;;;;5006397;28;20037;-69
2021/09/21 06:15:54;;;;;;;25.15;18.83;;;8.80;83.80;;;;;;4992153;28;20042;-68
2021/09/21 06:18:20;;;;;;;22.10;17.38;;;8.90;83.80;;;;;;4985995;28;20034;-68
2021/09/21 06:20:46;;;;;;;24.17;18.55;;;9.00;83.80;;;;;;4986805;28;20176;-68
2021/09/21 06:23:12;;;;;;;24.48;18.73;;;9.10;83.90;;;;;;4981807;28;20076;-69
2021/09/21 06:25:39;;;;;;;22.08;16.77;;;9.20;84.00;;;;;;4985831;28;20046;-68
2021/09/21 06:28:05;;;;;;;18.55;15.63;;;9.60;84.10;;;;;;4986082;28;20588;-68
2021/09/21 06:30:32;;;;;;;21.15;14.85;;;10.40;82.00;;;;;;4986301;28;20185;-68
2021/09/21 06:32:57;;;;;;;20.00;14.20;;;11.10;79.20;;;;;;4981219;28;20065;-70
2021/09/21 06:35:23;;;;;;;20.27;14.95;;;12.00;76.10;;;;;;4982573;28;20061;-72
2021/09/21 06:37:49;;;;;;;18.83;14.50;;;12.70;73.00;;;;;;4986569;28;20046;-69
2021/09/21 06:40:16;;;;;;;16.85;13.27;;;13.30;71.00;;;;;;4984411;28;20026;-69
2021/09/21 06:42:42;;;;;;;20.00;13.80;;;13.70;69.50;;;;;;4979840;28;20101;-69
2021/09/21 06:45:10;;;;;;;19.42;14.73;;;13.90;68.70;;;;;;4981534;28;20209;-68
2021/09/21 06:47:36;;;;;;;16.27;13.73;;;13.70;68.40;;;;;;4982709;28;20168;-70
2021/09/21 06:50:03;;;;;;;20.50;15.95;;;13.20;70.10;;;;;;4982344;28;20114;-69
2021/09/21 06:52:29;;;;;;;18.83;15.05;;;12.80;71.60;;;;;;4986097;28;20045;-70
2021/09/21 06:54:56;;;;;;;18.08;14.23;;;12.30;73.40;;;;;;4979903;28;20037;-69
2021/09/21 06:57:22;;;;;;;23.10;15.52;;;12.10;74.40;;;;;;4980434;28;20386;-69
2021/09/21 06:59:47;;;;;;;20.25;15.75;;;11.90;75.50;;;;;;4982247;28;20030;-71
2021/09/21 07:02:13;;;;;;;18.15;15.07;;;11.80;76.20;;;;;;4984754;28;20073;-69
2021/09/21 07:04:39;;;;;;;18.98;15.07;;;11.70;76.90;;;;;;4983582;28;20050;-68
2021/09/21 07:07:04;;;;;;;19.42;15.30;;;11.70;77.30;;;;;;4984984;28;20053;-68
2021/09/21 07:09:30;;;;;;;17.27;14.85;;;11.80;77.80;;;;;;4986746;28;20414;-69
2021/09/21 07:11:56;;;;;;;19.15;15.05;;;11.70;77.80;;;;;;4983192;28;20035;-69
2021/09/21 07:14:21;;;;;;;18.50;14.98;;;11.60;78.40;;;;;;4984812;28;20042;-68
2021/09/21 07:16:47;;;;;;;19.88;13.90;;;11.60;78.50;;;;;;4981918;28;20117;-69
2021/09/21 07:19:15;;;;;;;20.27;15.38;;;11.70;78.60;;;;;;4983941;28;20045;-69
2021/09/21 07:21:42;;;;;;;23.48;15.65;;;11.80;78.90;;;;;;4984127;28;20104;-68
2021/09/21 07:24:07;;;;;;;21.60;15.27;;;12.00;79.10;;;;;;4984267;28;20120;-69
2021/09/21 07:26:33;;;;;;;18.88;14.80;;;12.10;79.10;;;;;;4986633;28;20545;-70
2021/09/21 07:28:59;;;;;;;23.27;15.63;;;12.20;78.80;;;;;;4984256;28;20053;-69
2021/09/21 07:31:24;;;;;;;20.90;14.68;;;12.40;77.90;;;;;;4982433;28;20050;-69
2021/09/21 07:33:50;;;;;;;20.67;14.93;;;12.60;77.70;;;;;;4993735;28;20061;-68
2021/09/21 07:36:16;;;;;;;17.30;14.20;;;12.70;76.70;;;;;;4984911;28;20031;-69
2021/09/21 07:38:41;;;;;;;20.33;15.60;;;12.80;76.40;;;;;;4987735;28;20069;-69
2021/09/21 07:41:07;;;;;;;16.88;13.80;;;13.00;75.90;;;;;;4987131;28;20034;-69
2021/09/21 07:43:33;;;;;;;19.60;14.88;;;13.20;76.00;;;;;;4989299;28;20470;-70
2021/09/21 07:45:59;;;;;;;20.52;15.98;;;13.50;75.30;;;;;;4989996;28;20399;-71
2021/09/21 07:48:24;;;;;;;19.65;14.50;;;13.60;74.70;;;;;;4983796;28;20053;-69
2021/09/21 07:50:56;;;;;;;19.33;13.70;;;13.80;74.00;;;;;;4987015;28;20042;-69
2021/09/21 07:53:21;;;;;;;17.55;14.07;;;14.00;72.70;;;;;;4988599;28;20070;-69
2021/09/21 07:55:50;;;;;;;17.83;12.30;;;14.10;71.10;;;;;;4987574;28;20123;-70
2021/09/21 07:58:17;;;;;;;18.98;13.15;;;14.30;71.10;;;;;;4987529;28;20173;-68
2021/09/21 08:00:43;;;;;;;17.45;12.88;;;14.40;68.50;;;;;;4987497;28;20034;-70
2021/09/21 08:03:09;;;;;;;18.20;13.20;;;14.40;69.20;;;;;;4986046;28;20033;-70
2021/09/21 08:05:35;;;;;;;18.25;13.13;;;14.50;68.10;;;;;;4983598;28;20389;-70
2021/09/21 08:08:01;;;;;;;16.75;12.40;;;14.60;68.70;;;;;;4989133;28;20041;-69
2021/09/21 08:10:27;;;;;;;15.05;10.80;;;14.80;66.80;;;;;;4984496;28;20030;-71
2021/09/21 08:12:53;;;;;;;13.98;10.50;;;14.90;65.00;;;;;;4986047;28;20057;-69
2021/09/21 08:15:18;;;;;;;13.05;10.10;;;14.90;64.00;;;;;;4985217;28;20104;-69
2021/09/21 08:17:44;;;;;;;17.35;10.40;;;15.00;64.30;;;;;;4986407;28;20092;-72
2021/09/21 08:20:11;;;;;;;15.10;10.18;;;15.10;62.80;;;;;;4984665;28;20658;-68
2021/09/21 08:22:37;;;;;;;15.23;10.25;;;15.50;61.80;;;;;;4986625;28;20049;-68
2021/09/21 08:25:05;;;;;;;15.45;9.75;;;15.60;61.30;;;;;;4984632;28;20046;-68
2021/09/21 08:27:31;;;;;;;13.50;8.75;;;15.60;59.80;;;;;;4984973;28;20034;-68
2021/09/21 08:29:56;;;;;;;13.05;8.77;;;15.70;57.90;;;;;;4981186;28;20034;-69
2021/09/21 08:32:22;;;;;;;15.50;9.50;;;15.80;58.80;;;;;;4982093;28;20426;-70
2021/09/21 08:34:47;;;;;;;15.38;9.43;;;16.10;59.30;;;;;;4981917;28;20030;-69
2021/09/21 08:37:13;;;;;;;11.43;7.30;;;16.10;57.00;;;;;;4978136;28;20035;-69
2021/09/21 08:39:39;;;;;;;11.05;8.05;;;16.20;56.60;;;;;;4981768;28;20466;-69
2021/09/21 08:42:04;;;;;;;11.20;7.68;;;16.10;55.60;;;;;;4985921;28;20030;-70
2021/09/21 08:44:30;;;;;;;11.82;7.43;;;16.40;55.70;;;;;;4984535;28;20046;-69
2021/09/21 08:46:56;;;;;;;15.05;7.68;;;16.70;55.30;;;;;;4979539;28;20045;-70
2021/09/21 08:49:21;;;;;;;12.65;7.63;;;16.90;54.90;;;;;;4975595;28;20037;-69
2021/09/21 08:51:47;;;;;;;12.40;7.30;;;17.20;53.90;;;;;;4986469;28;20046;-69
2021/09/21 08:54:13;;;;;;;11.23;7.60;;;17.00;52.60;;;;;;4982495;28;20031;-69
2021/09/21 08:56:40;;;;;;;14.13;7.10;;;17.00;51.80;;;;;;4984280;28;20113;-69
2021/09/21 08:59:10;;;;;;;11.43;7.25;;;17.00;53.30;;;;;;4986824;28;20034;-69
2021/09/21 09:01:41;;;;;;;13.50;6.70;;;17.20;53.20;;;;;;4985183;28;20112;-67
2021/09/21 09:04:07;;;;;;;9.23;6.10;;;17.60;51.90;;;;;;4986188;28;20569;-68
2021/09/21 09:06:54;;;;;;;10.13;6.57;;;17.80;50.70;;;;;;4985398;28;20030;-70
2021/09/21 09:09:22;;;;;;;10.20;6.53;;;17.90;50.30;;;;;;4983859;28;20045;-71
2021/09/21 09:11:50;;;;;;;10.50;6.47;;;18.10;50.60;;;;;;4983010;28;20035;-69
2021/09/21 09:14:20;;;;;;;9.82;6.80;;;18.30;49.50;;;;;;4985316;28;20030;-68
2021/09/21 09:16:51;;;;;;;11.82;6.88;;;18.30;49.00;;;;;;4987910;28;20037;-72
2021/09/21 09:19:16;;;;;;;10.48;6.63;;;18.30;48.80;;;;;;4985905;28;20027;-68
2021/09/21 09:21:46;;;;;;;10.10;6.40;;;18.10;48.50;;;;;;4983332;28;20046;-68
2021/09/21 09:24:13;;;;;;;12.77;6.47;;;17.80;48.30;;;;;;4983411;28;20054;-68
2021/09/21 09:26:42;;;;;;;10.60;6.32;;;17.80;48.60;;;;;;4980602;28;20038;-69
2021/09/21 09:29:11;;;;;;;10.30;7.43;;;17.70;49.40;;;;;;4985599;28;20073;-69
2021/09/21 09:31:38;;;;;;;8.98;5.95;;;17.70;48.50;;;;;;4982807;28;20140;-68
2021/09/21 09:34:18;;;;;;;9.98;6.60;;;17.40;48.80;;;;;;4984336;28;20113;-72
2021/09/21 09:36:58;;;;;;;9.30;5.78;;;17.70;48.50;;;;;;4986812;28;20097;-68
2021/09/21 09:39:26;;;;;;;10.20;5.47;;;18.00;49.00;;;;;;4986023;28;20027;-68
2021/09/21 09:41:54;;;;;;;10.65;6.78;;;18.30;47.90;;;;;;4993671;28;20598;-69
2021/09/21 09:44:23;;;;;;;9.60;5.05;;;18.50;46.80;;;;;;5007886;28;20149;-68
2021/09/21 09:46:59;;;;;;;7.85;5.28;;;18.30;47.50;;;;;;5007878;28;20484;-68
2021/09/21 09:49:27;;;;;;;9.00;5.63;;;18.10;46.80;;;;;;5005576;28;20108;-68
2021/09/21 09:51:56;;;;;;;8.50;4.95;;;18.20;47.10;;;;;;5007887;28;20058;-68
2021/09/21 09:54:23;;;;;;;8.73;6.15;;;18.60;48.50;;;;;;5008558;28;20045;-69
2021/09/21 09:56:49;;;;;;;8.40;5.28;;;18.60;46.70;;;;;;5011813;28;20034;-67
2021/09/21 09:59:16;;;;;;;10.18;5.75;;;18.60;45.50;;;;;;5005331;28;20409;-67
2021/09/21 10:01:43;;;;;;;8.55;5.63;;;18.70;45.40;;;;;;5004349;28;20456;-68
2021/09/21 10:04:11;;;;;;;9.65;5.30;;;18.30;46.30;;;;;;5004580;28;20037;-67
2021/09/21 10:06:38;;;;;;;9.20;5.65;;;18.10;45.90;;;;;;5007441;28;20030;-68
2021/09/21 10:09:03;;;;;;;10.98;5.68;;;18.00;47.00;;;;;;5010327;28;20046;-67
2021/09/21 10:11:30;;;;;;;8.40;5.25;;;18.40;47.70;;;;;;5003754;28;20104;-68
2021/09/21 10:13:58;;;;;;;8.68;5.40;;;18.40;46.60;;;;;;5005071;28;20030;-69
2021/09/21 10:16:24;;;;;;;10.10;5.80;;;18.30;47.30;;;;;;5002727;28;20093;-68
2021/09/21 10:18:59;;;;;;;8.43;5.95;;;18.30;46.20;;;;;;5003130;28;20061;-68
2021/09/21 10:21:33;;;;;;;10.20;5.43;;;18.20;46.40;;;;;;5001531;28;20525;-68
2021/09/21 10:24:03;;;;;;;8.95;5.95;;;18.70;47.20;;;;;;5006854;28;20026;-69
2021/09/21 10:26:30;;;;;;;8.70;5.80;;;18.60;45.60;;;;;;5002504;28;20045;-68
2021/09/21 10:28:59;;;;;;;11.75;6.22;;;18.60;45.90;;;;;;5007238;28;20114;-70
2021/09/21 10:31:26;;;;;;;9.75;6.18;;;18.40;46.30;;;;;;5009088;28;20056;-68
2021/09/21 10:33:52;;;;;;;10.07;5.43;;;18.60;45.90;;;;;;5009500;28;20030;-69
2021/09/21 10:36:20;;;;;;;10.35;6.53;;;18.80;46.20;;;;;;5008220;28;20073;-68
2021/09/21 10:39:07;;;;;;;9.18;5.90;;;19.00;44.60;;;;;;5003918;28;20337;-68
2021/09/21 10:41:44;;;;;;;9.82;5.28;;;18.80;44.80;;;;;;4979689;28;20355;-68
2021/09/21 10:44:10;;;;;;;9.90;5.18;;;19.10;45.90;;;;;;4981370;28;20030;-68
2021/09/21 10:46:57;;;;;;;8.43;5.35;;;19.50;45.60;;;;;;4979331;28;20097;-68
2021/09/21 10:49:23;;;;;;;9.77;5.93;;;19.80;45.20;;;;;;4977074;28;20027;-68
2021/09/21 10:51:50;;;;;;;8.73;5.10;;;20.00;44.30;;;;;;4967144;28;20133;-70
2021/09/21 10:54:16;;;;;;;9.02;5.15;;;20.00;44.00;;;;;;4980102;28;20034;-69
2021/09/21 10:56:42;;;;;;;8.68;5.82;;;20.10;43.60;;;;;;4980242;28;20093;-68
2021/09/21 10:59:16;;;;;;;8.40;5.55;;;19.80;43.60;;;;;;4985570;28;20093;-68
2021/09/21 11:01:48;;;;;;;8.00;5.65;;;19.70;44.40;;;;;;4990906;28;20038;-69
2021/09/21 11:04:14;;;;;;;8.93;6.03;;;19.70;43.50;;;;;;4982368;28;20080;-69
2021/09/21 11:06:46;;;;;;;9.63;5.88;;;19.60;44.10;;;;;;4979454;28;20348;-69
2021/09/21 11:09:23;;;;;;;8.63;5.93;;;19.70;43.50;;;;;;4981600;28;20029;-69
2021/09/21 11:11:49;;;;;;;8.05;5.53;;;19.60;43.90;;;;;;4976087;28;20077;-70
2021/09/21 11:14:19;;;;;;;9.88;5.65;;;19.60;43.30;;;;;;4995777;28;20421;-69
2021/09/21 11:16:51;;;;;;;8.13;5.15;;;20.10;43.20;;;;;;4978933;28;20381;-68
2021/09/21 11:19:18;;;;;;;8.95;4.80;;;19.90;43.50;;;;;;4979408;28;20489;-68
2021/09/21 11:21:44;;;;;;;10.07;5.85;;;19.60;43.90;;;;;;4986596;28;20030;-69
2021/09/21 11:24:09;;;;;;;8.25;5.28;;;19.30;43.80;;;;;;4984543;28;20071;-66
2021/09/21 11:26:37;;;;;;;8.82;5.43;;;19.30;44.50;;;;;;4983239;28;20046;-68
2021/09/21 11:29:15;;;;;;;8.80;4.80;;;19.50;44.00;;;;;;4982959;28;20037;-68
2021/09/21 11:31:40;;;;;;;9.10;5.32;;;20.00;43.70;;;;;;4981535;28;20043;-67
2021/09/21 11:34:08;;;;;;;7.78;4.72;;;20.30;42.20;;;;;;4986140;28;20058;-68
2021/09/21 11:36:34;;;;;;;9.32;4.93;;;20.40;44.00;;;;;;4981284;28;20121;-68
2021/09/21 11:38:59;;;;;;;8.88;5.10;;;20.30;42.80;;;;;;4982591;28;20442;-68
2021/09/21 11:41:25;;;;;;;7.95;5.10;;;20.40;41.60;;;;;;4974901;28;20031;-68
2021/09/21 11:43:52;;;;;;;8.73;5.05;;;20.30;42.30;;;;;;4983937;28;20034;-72
2021/09/21 11:46:18;;;;;;;8.07;5.30;;;20.60;42.80;;;;;;4981192;28;20066;-68
2021/09/21 11:48:43;;;;;;;8.75;4.60;;;20.60;42.10;;;;;;4978644;28;20112;-72
2021/09/21 11:51:09;;;;;;;9.52;5.75;;;20.40;42.60;;;;;;4979103;28;20381;-68
2021/09/21 11:53:39;;;;;;;9.45;5.10;;;20.80;42.60;;;;;;4983346;28;20038;-68
2021/09/21 11:56:05;;;;;;;10.27;6.85;;;21.00;41.50;;;;;;4977693;28;20042;-68
2021/09/21 11:58:32;;;;;;;7.93;5.22;;;20.60;41.10;;;;;;4981988;28;20035;-68
2021/09/21 12:01:01;;;;;;;8.75;5.70;;;20.30;42.40;;;;;;4978978;28;20051;-69
2021/09/21 12:03:28;;;;;;;7.70;5.07;;;20.60;42.10;;;;;;4978877;28;20030;-71
2021/09/21 12:05:56;;;;;;;9.32;5.30;;;20.60;41.40;;;;;;4981679;28;20034;-68
2021/09/21 12:08:29;;;;;;;7.53;4.90;;;20.80;41.70;;;;;;4972354;28;20109;-69
2021/09/21 12:11:15;;;;;;;6.75;4.50;;;20.90;41.40;;;;;;4990638;28;20051;-71
2021/09/21 12:13:40;;;;;;;8.65;4.25;;;20.40;40.80;;;;;;4980764;28;20034;-69
2021/09/21 12:16:10;;;;;;;8.10;4.47;;;20.10;43.30;;;;;;4981606;28;20034;-69
2021/09/21 12:18:36;;;;;;;9.07;5.13;;;19.80;43.00;;;;;;4981677;28;20034;-69
2021/09/21 12:21:10;;;;;;;11.30;5.90;;;20.00;42.60;;;;;;4983490;28;20496;-69
2021/09/21 12:23:38;;;;;;;8.25;5.20;;;20.10;43.10;;;;;;4980660;28;20480;-69
2021/09/21 12:26:06;;;;;;;8.85;4.90;;;20.20;42.70;;;;;;4986948;28;20069;-72
2021/09/21 12:28:38;;;;;;;9.80;5.10;;;20.50;41.80;;;;;;4982531;28;20077;-67
2021/09/21 12:31:17;;;;;;;7.57;5.05;;;20.80;42.30;;;;;;4979707;28;20046;-68
2021/09/21 12:33:46;;;;;;;8.32;4.75;;;20.80;42.40;;;;;;4978776;28;20064;-70
2021/09/21 12:36:37;;;;;;;7.80;5.07;;;21.20;42.50;;;;;;4979356;28;20073;-69
2021/09/21 12:39:15;;;;;;;9.93;5.25;;;21.30;40.80;;;;;;4980567;28;20486;-71
2021/09/21 12:41:44;;;;;;;8.80;4.80;;;21.30;42.30;;;;;;4980884;28;20058;-68
2021/09/21 12:44:12;;;;;;;9.52;6.07;;;21.60;41.10;;;;;;4978628;28;20046;-71